Time;durP1;ratioP1;P1;durP2;ratioP2;P2;SDS_P1;SDS_P2;PMS_P1;PMS_P2;Temp;Humidity;BMP_temperature;BMP_pressure;BME280_temperature;BME280_humidity;BME280_pressure;Samples;Min_cycle;Max_cycle;Signal;HPM_P1;HPM_P2
2021/08/01 00:00:35;;;;;;;10.17;9.07;;;;;;;23.64;73.64;94695.06;4994783;28;20454;-84
2021/08/01 00:03:04;;;;;;;12.27;9.70;;;;;;;23.55;73.09;94690.97;4994950;28;20809;-85
2021/08/01 00:05:31;;;;;;;15.90;9.83;;;;;;;23.51;73.54;94683.59;4995800;28;20438;-84
2021/08/01 00:07:58;;;;;;;12.00;9.90;;;;;;;23.43;72.62;94674.78;4996166;28;20449;-84
2021/08/01 00:10:25;;;;;;;10.63;9.57;;;;;;;23.44;72.70;94681.78;4994330;28;20807;-83
2021/08/01 00:12:52;;;;;;;14.47;9.13;;;;;;;23.38;71.75;94677.25;4994206;28;20470;-84
2021/08/01 00:15:20;;;;;;;9.23;8.40;;;;;;;23.39;72.05;94681.56;4995106;28;20444;-84
2021/08/01 00:17:47;;;;;;;11.60;8.67;;;;;;;23.34;71.14;94677.91;4994853;28;20492;-83
2021/08/01 00:20:15;;;;;;;10.37;9.47;;;;;;;23.24;70.73;94683.72;4995021;28;20482;-83
2021/08/01 00:22:42;;;;;;;12.80;8.30;;;;;;;23.29;71.01;94683.06;4994009;28;20475;-84
2021/08/01 00:25:10;;;;;;;10.70;9.23;;;;;;;23.31;70.94;94676.47;4994457;28;20479;-84
2021/08/01 00:27:37;;;;;;;12.67;10.20;;;;;;;23.34;71.18;94683.25;4976528;28;20990;-84
2021/08/01 00:30:06;;;;;;;9.63;8.83;;;;;;;23.23;71.81;94679.41;4994488;28;20520;-83
2021/08/01 00:32:35;;;;;;;10.10;8.90;;;;;;;23.21;73.65;94696.72;4994256;28;20449;-83
2021/08/01 00:35:02;;;;;;;14.27;9.83;;;;;;;23.09;74.60;94696.53;4994743;28;20444;-83
2021/08/01 00:37:29;;;;;;;21.53;13.73;;;;;;;22.89;76.70;94701.16;4994114;28;20959;-83
2021/08/01 00:39:56;;;;;;;17.33;13.77;;;;;;;22.71;77.68;94686.53;4993853;28;20474;-84
2021/08/01 00:42:23;;;;;;;17.70;13.33;;;;;;;22.73;78.60;94692.50;4993891;28;20526;-85
2021/08/01 00:44:50;;;;;;;18.07;13.60;;;;;;;22.65;78.74;94679.34;4992381;28;20438;-84
2021/08/01 00:50:42;;;;;;;19.20;14.43;;;;;;;22.59;80.29;94684.72;4992790;28;20469;-84
2021/08/01 00:53:09;;;;;;;17.93;13.47;;;;;;;22.63;80.32;94680.59;4993997;28;20903;-84
2021/08/01 00:55:36;;;;;;;12.07;10.87;;;;;;;22.66;78.93;94690.88;4994477;28;20537;-84
2021/08/01 00:58:03;;;;;;;11.73;10.53;;;;;;;22.63;77.73;94694.81;4993555;28;21069;-84
2021/08/01 01:00:55;;;;;;;21.97;12.30;;;;;;;22.55;78.74;94697.66;4994071;28;20548;-84
2021/08/01 01:03:27;;;;;;;14.57;11.97;;;;;;;22.53;78.84;94691.72;4993901;28;20497;-84
2021/08/01 01:05:59;;;;;;;18.77;13.07;;;;;;;22.55;79.49;94692.31;4993839;28;20851;-84
2021/08/01 01:08:33;;;;;;;14.43;12.80;;;;;;;22.60;78.55;94689.88;4975889;28;20985;-84
2021/08/01 01:11:03;;;;;;;17.03;13.03;;;;;;;22.68;78.82;94684.28;4994162;28;20947;-85
2021/08/01 01:13:40;;;;;;;17.83;12.97;;;;;;;22.73;79.39;94691.69;4994080;28;20506;-84
2021/08/01 01:16:07;;;;;;;16.57;13.60;;;;;;;22.77;79.63;94695.56;4993780;28;20462;-84
2021/08/01 01:18:46;;;;;;;17.73;13.33;;;;;;;22.82;80.09;94706.50;4994261;28;20486;-84
2021/08/01 01:21:44;;;;;;;23.50;16.17;;;;;;;22.82;80.81;94695.78;5008206;28;20479;-85
2021/08/01 01:24:15;;;;;;;15.07;13.50;;;;;;;22.83;81.14;94690.22;4993624;28;20471;-84
2021/08/01 01:26:51;;;;;;;15.37;13.27;;;;;;;22.85;79.75;94692.72;4994154;28;20434;-84
2021/08/01 01:29:24;;;;;;;18.13;11.60;;;;;;;22.84;78.14;94689.22;4992250;28;20472;-84
2021/08/01 01:32:02;;;;;;;21.03;13.37;;;;;;;22.83;77.97;94692.91;4994292;28;20463;-84
2021/08/01 01:34:39;;;;;;;19.10;14.60;;;;;;;22.74;79.49;94698.69;4993432;28;20965;-84
2021/08/01 01:37:09;;;;;;;22.93;17.27;;;;;;;22.17;84.66;94705.53;4993581;28;20450;-85
2021/08/01 01:39:38;;;;;;;20.57;17.87;;;;;;;22.04;85.96;94703.69;4994410;28;20473;-85
2021/08/01 01:42:07;;;;;;;23.23;18.67;;;;;;;22.07;85.57;94708.63;4991695;28;20953;-84
2021/08/01 01:44:36;;;;;;;29.00;17.37;;;;;;;22.15;85.75;94715.59;4993293;28;20494;-84
2021/08/01 01:47:04;;;;;;;22.27;18.40;;;;;;;22.12;86.06;94716.03;4997123;28;20450;-84
2021/08/01 01:49:32;;;;;;;23.03;18.03;;;;;;;22.14;86.07;94730.81;4979134;28;20461;-84
2021/08/01 01:51:59;;;;;;;21.47;17.20;;;;;;;22.19;86.31;94716.84;4997660;28;20469;-84
2021/08/01 01:54:28;;;;;;;20.80;17.50;;;;;;;22.12;86.09;94716.03;4997654;28;20525;-84
2021/08/01 01:56:56;;;;;;;25.27;18.23;;;;;;;22.16;85.78;94715.41;4997894;28;20488;-85
2021/08/01 01:59:23;;;;;;;23.73;17.93;;;;;;;22.19;86.25;94711.50;4997246;28;20494;-84
2021/08/01 02:01:50;;;;;;;29.00;18.20;;;;;;;22.23;85.94;94721.56;4996999;28;20465;-85
2021/08/01 02:04:17;;;;;;;23.33;17.73;;;;;;;22.25;85.54;94714.16;4962698;28;20460;-84
2021/08/01 02:06:44;;;;;;;23.80;16.50;;;;;;;22.25;85.63;94716.00;4996970;28;20481;-84
2021/08/01 02:09:22;;;;;;;22.37;16.70;;;;;;;22.29;85.25;94709.25;4997088;28;20802;-85
2021/08/01 02:12:00;;;;;;;18.23;16.27;;;;;;;22.27;85.44;94708.63;4978493;28;20443;-84
2021/08/01 02:14:29;;;;;;;19.23;17.10;;;;;;;22.27;85.42;94707.81;4997206;28;20450;-84
2021/08/01 02:17:03;;;;;;;22.13;16.17;;;;;;;22.28;84.60;94694.22;4996265;28;20462;-84
2021/08/01 02:19:35;;;;;;;19.50;13.57;;;;;;;22.21;82.48;94710.25;4996954;28;20489;-85
2021/08/01 02:22:03;;;;;;;16.50;11.70;;;;;;;22.15;81.91;94700.38;4994391;28;20470;-85
2021/08/01 02:24:31;;;;;;;13.87;12.27;;;;;;;22.13;81.50;94697.09;4996440;28;20446;-85
2021/08/01 02:27:00;;;;;;;12.73;11.43;;;;;;;22.14;82.15;94704.09;4996856;28;20451;-84
2021/08/01 02:29:28;;;;;;;13.13;11.20;;;;;;;22.05;82.37;94697.31;4997202;28;20437;-85
2021/08/01 02:31:56;;;;;;;17.80;14.00;;;;;;;22.05;82.28;94701.84;4996165;28;20435;-84
2021/08/01 02:34:26;;;;;;;14.27;12.10;;;;;;;22.05;82.19;94694.63;4978801;28;20460;-84
2021/08/01 02:43:38;;;;;;;22.77;12.27;;;;;;;22.09;80.76;94706.56;4996034;28;20426;-85
2021/08/01 02:46:07;;;;;;;20.80;13.13;;;;;;;22.01;81.22;94714.75;4996209;28;20977;-84
2021/08/01 02:48:35;;;;;;;14.63;13.23;;;;;;;22.04;81.03;94717.06;4996074;28;20471;-85
2021/08/01 02:51:04;;;;;;;18.93;12.77;;;;;;;22.05;81.73;94718.69;4995685;28;20521;-86
2021/08/01 02:53:38;;;;;;;25.47;15.50;;;;;;;21.65;85.61;94720.44;4995698;28;20453;-87
2021/08/01 02:56:08;;;;;;;22.50;15.30;;;;;;;21.76;85.47;94727.88;4993880;28;20750;-87
2021/08/01 02:58:39;;;;;;;27.00;16.93;;;;;;;21.69;86.15;94726.22;4995926;28;20510;-85
2021/08/01 03:01:07;;;;;;;22.17;15.60;;;;;;;21.69;86.54;94732.38;4996426;28;20784;-87
2021/08/01 03:03:36;;;;;;;28.53;17.70;;;;;;;21.36;88.00;94731.44;4996218;28;20521;-85
2021/08/01 03:06:04;;;;;;;31.13;19.70;;;;;;;21.34;88.71;94729.81;4995457;28;20441;-84
2021/08/01 03:08:33;;;;;;;21.10;15.80;;;;;;;21.42;88.97;94720.81;4996103;28;20456;-89
2021/08/01 03:11:00;;;;;;;20.53;15.63;;;;;;;21.49;88.71;94726.16;4995503;28;20448;-85
2021/08/01 03:13:27;;;;;;;25.67;16.00;;;;;;;21.55;88.07;94726.19;4995187;28;20452;-84
2021/08/01 03:15:55;;;;;;;20.33;16.00;;;;;;;21.61;88.03;94724.53;5001423;28;20838;-85
2021/08/01 03:18:22;;;;;;;19.90;16.87;;;;;;;21.65;86.99;94723.94;5014857;28;20456;-87
2021/08/01 03:20:49;;;;;;;24.95;17.30;;;;;;;21.81;87.42;94724.59;5013635;28;20447;-82
2021/08/01 03:23:16;;;;;;;18.53;16.60;;;;;;;21.84;86.75;94721.50;5015053;28;20240;-83
2021/08/01 03:25:43;;;;;;;18.67;15.53;;;;;;;21.91;86.10;94731.16;5014975;28;20460;-80
2021/08/01 03:28:10;;;;;;;25.93;16.23;;;;;;;21.97;84.94;94740.22;5015013;28;20488;-85
2021/08/01 03:30:37;;;;;;;16.03;13.40;;;;;;;22.00;84.24;94745.19;5014853;28;20939;-83
2021/08/01 03:33:05;;;;;;;15.90;13.50;;;;;;;22.04;83.21;94732.25;5014953;28;20460;-87
2021/08/01 03:35:32;;;;;;;16.50;13.47;;;;;;;22.10;83.37;94748.28;4996922;28;20452;-87
2021/08/01 03:37:59;;;;;;;15.37;13.30;;;;;;;22.14;82.31;94751.38;5014425;28;20524;-85
2021/08/01 03:40:26;;;;;;;15.30;12.50;;;;;;;22.12;82.41;94756.09;5015507;28;20909;-88
2021/08/01 03:42:54;;;;;;;15.47;13.07;;;;;;;22.16;82.26;94758.16;5014401;28;20521;-86
2021/08/01 03:45:21;;;;;;;19.30;13.53;;;;;;;22.22;82.24;94759.19;5014373;28;20414;-84
